Time;durP1;ratioP1;P1;durP2;ratioP2;P2;SDS_P1;SDS_P2;PMS_P1;PMS_P2;Temp;Humidity;BMP_temperature;BMP_pressure;BME280_temperature;BME280_humidity;BME280_pressure;Samples;Min_cycle;Max_cycle;Signal;HPM_P1;HPM_P2
2021/06/19 00:00:13;;;;;;;7.68;4.75;;;;;;;;;;5108868;28;20024;-68
2021/06/19 00:04:38;;;;;;;6.18;4.22;;;;;;;;;;5125882;27;20377;-68
2021/06/19 00:07:47;;;;;;;8.93;5.00;;;;;;;;;;5126501;27;20380;-68
2021/06/19 00:10:14;;;;;;;7.30;4.95;;;;;;;;;;5109413;28;20028;-68
2021/06/19 00:12:40;;;;;;;11.77;4.72;;;;;;;;;;5109892;28;20024;-68
2021/06/19 00:15:07;;;;;;;7.40;4.82;;;;;;;;;;5109176;28;20020;-68
2021/06/19 00:18:47;;;;;;;7.03;4.50;;;;;;;;;;5125771;27;20380;-68
2021/06/19 00:21:13;;;;;;;7.40;4.95;;;;;;;;;;5109109;28;20048;-68
2021/06/19 00:25:04;;;;;;;7.85;4.72;;;;;;;;;;5126353;27;20381;-68
2021/06/19 00:27:30;;;;;;;7.40;4.60;;;;;;;;;;5108841;28;20031;-68
2021/06/19 00:29:56;;;;;;;6.13;4.45;;;;;;;;;;5110604;28;20055;-68
2021/06/19 00:32:22;;;;;;;9.27;4.68;;;;;;;;;;5110087;28;20055;-68
2021/06/19 00:35:27;;;;;;;7.57;4.63;;;;;;;;;;5126379;27;20405;-68
2021/06/19 00:37:53;;;;;;;8.73;5.38;;;;;;;;;;5110489;28;20024;-69
2021/06/19 00:40:20;;;;;;;8.57;4.57;;;;;;;;;;5110045;28;20028;-68
2021/06/19 00:42:54;;;;;;;8.00;4.38;;;;;;;;;;5110427;28;20102;-68
2021/06/19 00:45:21;;;;;;;9.60;5.95;;;;;;;;;;5110445;28;20671;-68
2021/06/19 00:47:47;;;;;;;6.43;4.55;;;;;;;;;;5110114;28;20032;-68
2021/06/19 00:52:22;;;;;;;9.57;5.10;;;;;;;;;;5126437;27;20376;-68
2021/06/19 00:54:48;;;;;;;8.05;5.05;;;;;;;;;;5108837;28;20031;-68
2021/06/19 00:57:15;;;;;;;7.18;5.05;;;;;;;;;;5110434;28;20135;-68
2021/06/19 00:59:41;;;;;;;7.47;4.63;;;;;;;;;;5109134;28;20051;-68
2021/06/19 01:02:25;;;;;;;7.95;4.50;;;;;;;;;;5126034;27;20380;-68
2021/06/19 01:06:16;;;;;;;9.35;4.35;;;;;;;;;;5126427;27;20379;-68
2021/06/19 01:08:42;;;;;;;8.13;4.90;;;;;;;;;;5110257;28;20052;-68
2021/06/19 01:11:08;;;;;;;9.45;5.07;;;;;;;;;;5110530;28;20024;-67
2021/06/19 01:13:35;;;;;;;8.05;4.60;;;;;;;;;;5110422;28;20400;-67
2021/06/19 01:16:02;;;;;;;7.15;4.32;;;;;;;;;;5110059;28;20023;-67
2021/06/19 01:18:28;;;;;;;8.60;4.13;;;;;;;;;;5110387;28;20028;-67
2021/06/19 01:20:54;;;;;;;7.38;4.05;;;;;;;;;;5110363;28;20020;-68
2021/06/19 01:23:20;;;;;;;5.07;3.63;;;;;;;;;;5108460;28;20054;-68
2021/06/19 01:25:46;;;;;;;6.38;4.45;;;;;;;;;;5110253;28;20036;-68
2021/06/19 01:28:13;;;;;;;7.93;4.63;;;;;;;;;;5110305;28;20023;-67
2021/06/19 01:30:39;;;;;;;6.22;4.25;;;;;;;;;;5109703;28;20031;-68
2021/06/19 01:33:08;;;;;;;6.18;3.92;;;;;;;;;;5108814;28;20076;-68
2021/06/19 01:35:36;;;;;;;7.13;3.75;;;;;;;;;;5109525;28;20031;-68
2021/06/19 01:38:02;;;;;;;10.70;4.05;;;;;;;;;;5109955;28;20020;-68
2021/06/19 01:40:30;;;;;;;9.20;4.57;;;;;;;;;;5109891;28;20103;-68
2021/06/19 01:42:56;;;;;;;6.88;3.67;;;;;;;;;;5108077;28;20024;-68
2021/06/19 01:45:24;;;;;;;7.28;4.32;;;;;;;;;;5109846;28;20107;-68
2021/06/19 01:47:50;;;;;;;6.47;3.90;;;;;;;;;;5108701;28;20024;-68
2021/06/19 01:50:17;;;;;;;7.38;4.80;;;;;;;;;;5109334;28;20035;-67
2021/06/19 01:52:44;;;;;;;8.52;4.95;;;;;;;;;;5108358;28;20024;-68
2021/06/19 01:55:10;;;;;;;8.65;5.38;;;;;;;;;;5108194;28;20476;-68
2021/06/19 01:58:07;;;;;;;8.90;5.68;;;;;;;;;;5126007;27;20386;-68
2021/06/19 02:00:37;;;;;;;8.70;5.18;;;;;;;;;;5110502;28;20031;-69
2021/06/19 02:03:06;;;;;;;8.57;4.85;;;;;;;;;;5110425;28;20047;-68
2021/06/19 02:05:32;;;;;;;9.60;5.20;;;;;;;;;;5108832;28;20503;-68
2021/06/19 02:07:59;;;;;;;7.80;5.05;;;;;;;;;;5110543;28;20024;-68
2021/06/19 02:10:30;;;;;;;8.02;4.95;;;;;;;;;;5109004;28;20073;-68
2021/06/19 02:12:57;;;;;;;8.98;5.25;;;;;;;;;;5108570;28;20020;-68
2021/06/19 02:15:24;;;;;;;7.10;4.20;;;;;;;;;;5108994;28;20023;-67
2021/06/19 02:17:50;;;;;;;8.27;4.68;;;;;;;;;;5109742;28;20085;-67
2021/06/19 02:20:21;;;;;;;7.60;4.30;;;;;;;;;;5110147;28;20027;-67
2021/06/19 02:23:25;;;;;;;8.43;5.05;;;;;;;;;;5126356;27;20385;-67
2021/06/19 02:25:52;;;;;;;7.13;4.60;;;;;;;;;;5108893;28;20024;-68
2021/06/19 02:28:20;;;;;;;7.90;4.80;;;;;;;;;;5110767;28;20024;-67
2021/06/19 02:30:47;;;;;;;8.60;5.20;;;;;;;;;;5110410;28;20107;-68
2021/06/19 02:33:13;;;;;;;8.15;4.97;;;;;;;;;;5109993;28;20039;-68
2021/06/19 02:35:41;;;;;;;8.80;5.15;;;;;;;;;;5110350;28;20062;-68
2021/06/19 02:38:08;;;;;;;8.43;5.20;;;;;;;;;;5108985;28;20031;-67
2021/06/19 02:40:34;;;;;;;7.25;4.75;;;;;;;;;;5109888;28;20468;-67
2021/06/19 02:43:01;;;;;;;7.63;4.85;;;;;;;;;;5108838;28;20040;-68
2021/06/19 02:45:27;;;;;;;7.60;4.82;;;;;;;;;;5110160;28;20020;-68
2021/06/19 02:47:55;;;;;;;6.97;4.57;;;;;;;;;;5109964;28;20028;-68
2021/06/19 02:52:32;;;;;;;7.70;4.72;;;;;;;;;;5129778;27;20138;-68
2021/06/19 02:54:58;;;;;;;7.97;5.25;;;;;;;;;;5130697;27;20082;-68
2021/06/19 02:57:25;;;;;;;8.40;4.53;;;;;;;;;;5130940;28;20011;-68
2021/06/19 02:59:51;;;;;;;7.38;4.13;;;;;;;;;;5129263;28;20026;-68
2021/06/19 03:02:17;;;;;;;7.18;4.70;;;;;;;;;;5130743;27;20062;-68
2021/06/19 03:04:43;;;;;;;7.28;4.82;;;;;;;;;;5130771;28;20019;-68
2021/06/19 03:07:09;;;;;;;7.30;4.32;;;;;;;;;;5130524;28;20094;-68
2021/06/19 03:09:36;;;;;;;7.15;4.53;;;;;;;;;;5130824;28;20522;-68
2021/06/19 03:12:02;;;;;;;8.60;4.78;;;;;;;;;;5130901;28;20039;-68
2021/06/19 03:14:28;;;;;;;8.32;4.35;;;;;;;;;;5130274;28;20020;-68
2021/06/19 03:16:55;;;;;;;7.13;4.43;;;;;;;;;;5130590;28;20106;-68
2021/06/19 03:22:20;;;;;;;6.05;3.80;;;;;;;;;;5125958;27;20380;-69
2021/06/19 03:24:47;;;;;;;8.10;4.65;;;;;;;;;;5109252;28;20052;-69
2021/06/19 03:27:14;;;;;;;6.15;3.83;;;;;;;;;;5109285;28;20066;-69
2021/06/19 03:29:40;;;;;;;7.03;3.95;;;;;;;;;;5109013;28;20103;-69
2021/06/19 03:34:06;;;;;;;7.80;4.95;;;;;;;;;;5126316;27;20384;-69
2021/06/19 03:36:32;;;;;;;8.98;4.45;;;;;;;;;;5110107;28;20088;-68
2021/06/19 03:39:16;;;;;;;8.85;4.47;;;;;;;;;;5126354;27;20132;-68
2021/06/19 03:41:45;;;;;;;7.93;4.28;;;;;;;;;;5109177;28;20047;-68
2021/06/19 03:44:11;;;;;;;6.85;3.90;;;;;;;;;;5108569;28;20475;-68
2021/06/19 03:46:41;;;;;;;7.03;4.07;;;;;;;;;;5110516;28;20436;-68
2021/06/19 03:49:49;;;;;;;8.13;5.00;;;;;;;;;;5129656;27;20479;-68
2021/06/19 03:52:15;;;;;;;7.68;3.60;;;;;;;;;;5129640;28;20050;-68
2021/06/19 03:54:41;;;;;;;6.68;4.03;;;;;;;;;;5129641;28;20028;-68
2021/06/19 03:57:08;;;;;;;6.47;4.53;;;;;;;;;;5130512;28;20043;-68
2021/06/19 03:59:34;;;;;;;8.07;4.00;;;;;;;;;;5129543;28;20389;-68
2021/06/19 04:02:01;;;;;;;7.00;4.40;;;;;;;;;;5130892;28;20020;-68
2021/06/19 04:04:27;;;;;;;8.27;3.60;;;;;;;;;;5130592;28;20094;-68
2021/06/19 04:06:53;;;;;;;7.20;4.38;;;;;;;;;;5130698;28;20498;-68
2021/06/19 04:09:20;;;;;;;6.80;4.60;;;;;;;;;;5130664;28;20059;-69
2021/06/19 04:11:46;;;;;;;8.20;4.97;;;;;;;;;;5130299;28;20387;-69
2021/06/19 04:18:03;;;;;;;8.55;5.20;;;;;;;;;;5126034;27;20438;-68
2021/06/19 04:24:35;;;;;;;8.35;4.43;;;;;;;;;;5126221;27;20381;-67
2021/06/19 04:27:02;;;;;;;6.93;4.25;;;;;;;;;;5110533;28;20492;-67
2021/06/19 04:29:30;;;;;;;7.25;4.20;;;;;;;;;;5110325;28;20429;-67
2021/06/19 04:31:56;;;;;;;8.07;5.25;;;;;;;;;;5108780;28;20038;-68
2021/06/19 04:34:23;;;;;;;10.38;4.55;;;;;;;;;;5109071;28;20387;-67
2021/06/19 04:36:50;;;;;;;7.90;4.75;;;;;;;;;;5109131;28;20019;-67
2021/06/19 04:39:17;;;;;;;8.45;4.60;;;;;;;;;;5108708;28;20054;-69
2021/06/19 04:44:03;;;;;;;8.00;5.15;;;;;;;;;;5130023;27;20127;-68
2021/06/19 04:46:26;;;;;;;7.85;5.05;;;;;;;;;;5130547;28;20039;-69
2021/06/19 04:48:53;;;;;;;10.13;4.85;;;;;;;;;;5129708;28;20034;-68
2021/06/19 04:51:19;;;;;;;8.60;4.47;;;;;;;;;;5129649;28;20019;-68
2021/06/19 04:53:46;;;;;;;10.65;5.82;;;;;;;;;;5130506;28;20035;-69
2021/06/19 04:56:12;;;;;;;10.55;4.43;;;;;;;;;;5129539;28;20016;-69
2021/06/19 04:58:39;;;;;;;11.65;5.55;;;;;;;;;;5129514;28;20027;-69
2021/06/19 05:01:06;;;;;;;6.78;4.53;;;;;;;;;;5128981;28;20020;-68
2021/06/19 05:03:32;;;;;;;7.72;4.88;;;;;;;;;;5130790;28;20079;-68
2021/06/19 05:06:00;;;;;;;5.95;4.25;;;;;;;;;;5130849;28;20027;-68
2021/06/19 05:08:46;;;;;;;8.32;4.63;;;;;;;;;;5125979;27;20381;-68
2021/06/19 05:11:12;;;;;;;8.90;4.75;;;;;;;;;;5110589;28;20111;-68
2021/06/19 05:13:38;;;;;;;9.90;5.13;;;;;;;;;;5110071;28;20525;-68
2021/06/19 05:16:04;;;;;;;14.73;5.28;;;;;;;;;;5110431;28;20046;-68
2021/06/19 05:18:31;;;;;;;7.60;5.25;;;;;;;;;;5110361;28;20047;-68
2021/06/19 05:20:57;;;;;;;9.82;5.55;;;;;;;;;;5108844;28;20024;-68
2021/06/19 05:23:57;;;;;;;8.90;5.40;;;;;;;;;;5126542;27;20380;-68
2021/06/19 05:28:29;;;;;;;10.50;6.65;;;;;;;;;;5126126;27;20160;-68
2021/06/19 05:30:55;;;;;;;8.13;5.20;;;;;;;;;;5110572;28;20028;-68
2021/06/19 05:33:21;;;;;;;7.80;5.45;;;;;;;;;;5109280;28;20028;-68
2021/06/19 05:35:47;;;;;;;9.18;5.65;;;;;;;;;;5110016;28;20028;-68
2021/06/19 05:38:14;;;;;;;8.07;4.95;;;;;;;;;;5110502;28;20023;-68
2021/06/19 05:40:40;;;;;;;8.95;5.55;;;;;;;;;;5109475;28;20058;-68
2021/06/19 05:43:06;;;;;;;12.98;6.35;;;;;;;;;;5110061;28;20476;-68
2021/06/19 05:45:32;;;;;;;10.40;5.50;;;;;;;;;;5110289;28;20027;-68
2021/06/19 05:47:59;;;;;;;11.73;6.70;;;;;;;;;;5108786;28;20040;-68
2021/06/19 05:51:49;;;;;;;10.60;5.57;;;;;;;;;;5126216;27;20373;-68
2021/06/19 05:54:45;;;;;;;9.88;5.95;;;;;;;;;;5126377;27;20374;-68
2021/06/19 05:57:11;;;;;;;8.98;5.50;;;;;;;;;;5110104;28;20107;-68
2021/06/19 05:59:37;;;;;;;10.82;6.20;;;;;;;;;;5110397;28;20095;-69
2021/06/19 06:03:30;;;;;;;8.73;5.35;;;;;;;;;;5126104;27;20374;-68
2021/06/19 06:05:56;;;;;;;10.70;5.88;;;;;;;;;;5109085;28;20038;-68
2021/06/19 06:08:22;;;;;;;9.63;6.00;;;;;;;;;;5110447;28;20029;-68
2021/06/19 06:10:48;;;;;;;11.48;6.35;;;;;;;;;;5110030;28;20040;-68
2021/06/19 06:14:58;;;;;;;8.82;5.97;;;;;;;;;;5126314;27;20388;-68
2021/06/19 06:17:25;;;;;;;10.27;5.88;;;;;;;;;;5108752;28;20031;-68
2021/06/19 06:21:55;;;;;;;10.23;5.90;;;;;;;;;;5126332;27;20380;-68
2021/06/19 06:26:29;;;;;;;7.95;5.03;;;;;;;;;;5129725;27;20618;-68
2021/06/19 06:28:55;;;;;;;13.10;6.32;;;;;;;;;;5130976;28;20060;-68
2021/06/19 06:31:21;;;;;;;9.43;5.78;;;;;;;;;;5130434;27;20103;-68
2021/06/19 06:33:48;;;;;;;10.20;5.97;;;;;;;;;;5130829;28;20501;-68
2021/06/19 06:36:14;;;;;;;9.48;5.70;;;;;;;;;;5129511;28;20114;-67
2021/06/19 06:40:37;;;;;;;10.32;5.90;;;;;;;;;;5126482;27;20400;-68
2021/06/19 06:43:03;;;;;;;12.07;5.75;;;;;;;;;;5110652;28;20035;-69
2021/06/19 06:45:29;;;;;;;11.68;5.78;;;;;;;;;;5108728;28;20035;-67
2021/06/19 06:47:57;;;;;;;9.88;5.78;;;;;;;;;;5110374;28;20019;-68
2021/06/19 06:50:25;;;;;;;12.18;4.85;;;;;;;;;;5110370;28;20093;-68
2021/06/19 06:53:23;;;;;;;13.77;5.30;;;;;;;;;;5126002;27;20373;-68
2021/06/19 06:55:49;;;;;;;9.88;5.35;;;;;;;;;;5110521;28;20020;-68
2021/06/19 06:58:15;;;;;;;10.02;5.47;;;;;;;;;;5110396;28;20031;-68
2021/06/19 07:00:42;;;;;;;8.65;4.72;;;;;;;;;;5110150;28;20051;-67
2021/06/19 07:03:08;;;;;;;9.00;5.10;;;;;;;;;;5110441;28;20070;-68
2021/06/19 07:05:52;;;;;;;9.88;4.80;;;;;;;;;;5105899;27;20382;-68
2021/06/19 07:08:18;;;;;;;7.45;4.82;;;;;;;;;;5088449;28;20035;-68
2021/06/19 07:10:44;;;;;;;8.30;5.35;;;;;;;;;;5090024;28;20484;-67
2021/06/19 07:13:10;;;;;;;9.50;6.15;;;;;;;;;;5089716;28;20030;-68
2021/06/19 07:15:37;;;;;;;9.70;5.97;;;;;;;;;;5090013;28;20024;-68
2021/06/19 07:18:03;;;;;;;7.43;4.97;;;;;;;;;;5090043;28;20103;-68
2021/06/19 07:20:30;;;;;;;10.70;6.22;;;;;;;;;;5088468;28;20024;-67
2021/06/19 07:22:56;;;;;;;9.00;5.57;;;;;;;;;;5089834;28;20023;-68
2021/06/19 07:25:22;;;;;;;9.82;5.97;;;;;;;;;;5089809;28;20165;-68
2021/06/19 07:27:53;;;;;;;9.88;6.40;;;;;;;;;;5088125;28;20020;-68
2021/06/19 07:30:20;;;;;;;10.52;5.95;;;;;;;;;;5089784;28;20024;-68
2021/06/19 07:32:46;;;;;;;13.63;6.45;;;;;;;;;;5089770;28;20017;-68
2021/06/19 07:37:18;;;;;;;7.82;4.85;;;;;;;;;;5126413;27;20380;-68
2021/06/19 07:39:45;;;;;;;10.93;5.78;;;;;;;;;;5110701;28;20477;-68
2021/06/19 07:42:11;;;;;;;9.02;5.07;;;;;;;;;;5110044;28;20077;-68
2021/06/19 07:44:37;;;;;;;6.95;5.15;;;;;;;;;;5110429;28;20092;-68
2021/06/19 07:47:03;;;;;;;9.30;5.80;;;;;;;;;;5110330;28;20055;-68
2021/06/19 07:49:30;;;;;;;8.07;4.90;;;;;;;;;;5109801;28;20024;-68
2021/06/19 07:51:57;;;;;;;7.97;5.03;;;;;;;;;;5108977;28;20464;-69
2021/06/19 07:56:00;;;;;;;7.00;4.75;;;;;;;;;;5125870;27;20381;-69
2021/06/19 07:58:26;;;;;;;6.90;4.63;;;;;;;;;;5110681;28;20455;-69
2021/06/19 08:01:21;;;;;;;6.72;4.32;;;;;;;;;;5126365;27;20473;-68
2021/06/19 08:03:47;;;;;;;8.32;4.38;;;;;;;;;;5108867;28;20055;-68
2021/06/19 08:06:14;;;;;;;6.30;3.50;;;;;;;;;;5110353;28;20024;-68
2021/06/19 08:09:02;;;;;;;5.50;3.45;;;;;;;;;;5126277;27;20377;-68
2021/06/19 08:11:28;;;;;;;5.72;3.10;;;;;;;;;;5108699;28;20036;-68
2021/06/19 08:13:54;;;;;;;6.13;3.22;;;;;;;;;;5110390;28;20020;-68
2021/06/19 08:16:21;;;;;;;4.25;2.70;;;;;;;;;;5110095;28;20099;-69
2021/06/19 08:18:47;;;;;;;4.63;2.92;;;;;;;;;;5109271;28;20024;-69
2021/06/19 08:21:14;;;;;;;3.22;2.20;;;;;;;;;;5110277;28;20081;-68
2021/06/19 08:23:40;;;;;;;4.15;2.40;;;;;;;;;;5108416;28;20023;-68
2021/06/19 08:26:07;;;;;;;6.40;3.45;;;;;;;;;;5108815;28;20019;-68
2021/06/19 08:28:34;;;;;;;6.45;2.90;;;;;;;;;;5108718;28;20036;-69
2021/06/19 08:31:01;;;;;;;5.63;2.90;;;;;;;;;;5109741;28;20019;-69
2021/06/19 08:33:28;;;;;;;6.45;3.47;;;;;;;;;;5109943;28;20023;-69
2021/06/19 08:35:54;;;;;;;5.40;3.25;;;;;;;;;;5110001;28;20491;-68
2021/06/19 08:38:20;;;;;;;8.63;4.07;;;;;;;;;;5109742;28;20056;-68
2021/06/19 08:40:46;;;;;;;6.75;3.30;;;;;;;;;;5108772;28;20020;-68
2021/06/19 08:43:12;;;;;;;7.22;3.90;;;;;;;;;;5109899;28;20076;-69
2021/06/19 08:45:40;;;;;;;8.88;5.05;;;;;;;;;;5109403;28;20035;-68
2021/06/19 08:48:07;;;;;;;12.38;6.47;;;;;;;;;;5109768;28;20039;-68
2021/06/19 08:50:36;;;;;;;8.52;3.83;;;;;;;;;;5109678;28;20095;-69
2021/06/19 08:53:02;;;;;;;7.03;3.90;;;;;;;;;;5109210;28;20042;-68
2021/06/19 08:55:29;;;;;;;7.90;3.80;;;;;;;;;;5109644;28;20020;-68
2021/06/19 08:57:55;;;;;;;3.90;2.55;;;;;;;;;;5109731;28;20399;-68
2021/06/19 09:00:21;;;;;;;6.15;3.25;;;;;;;;;;5107980;28;20019;-69
2021/06/19 09:04:04;;;;;;;8.10;3.40;;;;;;;;;;5126236;27;20837;-68
2021/06/19 09:06:30;;;;;;;6.18;3.30;;;;;;;;;;5110113;28;20031;-68
2021/06/19 09:09:07;;;;;;;10.15;4.05;;;;;;;;;;5110414;28;20020;-68
2021/06/19 09:11:40;;;;;;;12.18;4.53;;;;;;;;;;5110368;28;20487;-69
2021/06/19 09:14:09;;;;;;;9.38;4.70;;;;;;;;;;5108587;28;20035;-68
2021/06/19 09:16:36;;;;;;;7.65;3.80;;;;;;;;;;5108891;28;20379;-68
2021/06/19 09:19:02;;;;;;;8.70;4.43;;;;;;;;;;5110303;28;20074;-68
2021/06/19 09:21:29;;;;;;;7.20;4.28;;;;;;;;;;5109979;28;20322;-68
2021/06/19 09:23:56;;;;;;;10.88;5.10;;;;;;;;;;5110120;28;20028;-69
2021/06/19 09:26:27;;;;;;;9.00;4.18;;;;;;;;;;5110056;28;20460;-68
2021/06/19 09:28:59;;;;;;;10.55;5.40;;;;;;;;;;5108363;28;20380;-69
2021/06/19 09:31:31;;;;;;;13.43;7.78;;;;;;;;;;5109872;28;20103;-68
2021/06/19 09:34:01;;;;;;;11.82;6.50;;;;;;;;;;5109533;28;20024;-69
2021/06/19 09:36:41;;;;;;;11.55;6.60;;;;;;;;;;5108512;28;20387;-69
2021/06/19 09:39:08;;;;;;;9.23;4.60;;;;;;;;;;5108711;28;20123;-69
2021/06/19 09:41:38;;;;;;;9.90;4.97;;;;;;;;;;5108102;28;20468;-69
2021/06/19 09:44:05;;;;;;;9.93;5.28;;;;;;;;;;5109740;28;20032;-69
2021/06/19 09:46:31;;;;;;;9.80;4.60;;;;;;;;;;5109721;28;20494;-68
2021/06/19 09:49:13;;;;;;;20.27;5.50;;;;;;;;;;5109347;28;20031;-69
2021/06/19 09:51:47;;;;;;;12.52;4.43;;;;;;;;;;5108295;28;20016;-68
2021/06/19 09:54:14;;;;;;;7.35;3.47;;;;;;;;;;5109583;28;20031;-69
2021/06/19 09:56:45;;;;;;;6.50;3.33;;;;;;;;;;5107719;28;20406;-68
2021/06/19 09:59:21;;;;;;;4.90;2.88;;;;;;;;;;5109688;28;20028;-68
2021/06/19 10:01:48;;;;;;;5.93;2.97;;;;;;;;;;5108421;28;20429;-69
2021/06/19 10:04:17;;;;;;;8.68;4.00;;;;;;;;;;5109388;28;20095;-68
2021/06/19 10:06:44;;;;;;;6.82;3.60;;;;;;;;;;5109298;28;20085;-68
2021/06/19 10:09:10;;;;;;;9.98;3.55;;;;;;;;;;5107564;28;20107;-69
2021/06/19 10:11:36;;;;;;;8.00;3.85;;;;;;;;;;5107970;28;20080;-69
2021/06/19 10:14:03;;;;;;;14.10;5.43;;;;;;;;;;5103089;28;20032;-69
2021/06/19 10:16:30;;;;;;;12.63;4.68;;;;;;;;;;5095260;28;20016;-69
2021/06/19 10:18:57;;;;;;;6.22;3.80;;;;;;;;;;5094396;28;20031;-68
2021/06/19 10:21:24;;;;;;;6.85;3.70;;;;;;;;;;5095525;28;20098;-68
2021/06/19 10:23:50;;;;;;;6.60;3.33;;;;;;;;;;5094959;28;20028;-69
2021/06/19 10:26:24;;;;;;;5.38;3.10;;;;;;;;;;5095236;28;20024;-69
2021/06/19 10:28:52;;;;;;;4.00;2.42;;;;;;;;;;5095415;28;20024;-69
2021/06/19 10:31:26;;;;;;;7.30;3.05;;;;;;;;;;5088606;28;20385;-68
2021/06/19 10:33:52;;;;;;;5.45;2.90;;;;;;;;;;5090132;28;20031;-67
2021/06/19 10:36:19;;;;;;;5.13;3.08;;;;;;;;;;5089932;28;20504;-68
2021/06/19 10:38:52;;;;;;;7.63;3.10;;;;;;;;;;5089759;28;20020;-68
2021/06/19 10:41:20;;;;;;;4.80;2.67;;;;;;;;;;5090013;28;20027;-68
2021/06/19 10:43:47;;;;;;;5.47;2.30;;;;;;;;;;5089926;28;20380;-68
2021/06/19 10:46:32;;;;;;;4.38;2.55;;;;;;;;;;5071183;28;20028;-68
2021/06/19 10:51:18;;;;;;;3.70;2.10;;;;;;;;;;5126308;27;20389;-68
2021/06/19 10:54:02;;;;;;;4.40;2.40;;;;;;;;;;5110375;28;20047;-68
2021/06/19 10:56:49;;;;;;;3.65;1.90;;;;;;;;;;5110381;28;20425;-68
2021/06/19 10:59:17;;;;;;;4.50;2.25;;;;;;;;;;5110156;28;20383;-68
2021/06/19 11:13:43;;;;;;;3.65;2.58;;;;;;;;;;5109908;27;20369;-70
2021/06/19 11:16:28;;;;;;;4.18;2.10;;;;;;;;;;5092762;28;20047;-68
2021/06/19 11:18:55;;;;;;;4.90;3.35;;;;;;;;;;5092691;28;20031;-68
2021/06/19 11:21:40;;;;;;;8.32;3.85;;;;;;;;;;5130367;27;20111;-68
2021/06/19 11:24:06;;;;;;;6.18;2.78;;;;;;;;;;5129320;28;20023;-68
2021/06/19 11:29:44;;;;;;;13.45;3.08;;;;;;;;;;5126153;27;20380;-68
2021/06/19 11:32:30;;;;;;;4.80;2.80;;;;;;;;;;5110043;28;20024;-68
2021/06/19 11:34:58;;;;;;;4.63;3.22;;;;;;;;;;5110466;28;20016;-68
2021/06/19 11:37:25;;;;;;;10.68;4.03;;;;;;;;;;5110041;28;20023;-69
2021/06/19 11:41:14;;;;;;;5.32;3.78;;;;;;;;;;5126578;27;20380;-68
2021/06/19 11:44:32;;;;;;;7.97;4.10;;;;;;;;;;5126295;27;20728;-68
2021/06/19 11:47:00;;;;;;;6.07;4.10;;;;;;;;;;5109079;28;20475;-68
2021/06/19 11:49:27;;;;;;;7.90;3.63;;;;;;;;;;5109070;28;20024;-68
2021/06/19 11:53:27;;;;;;;5.85;3.85;;;;;;;;;;5126256;27;20388;-69
2021/06/19 11:56:54;;;;;;;10.38;4.43;;;;;;;;;;5126281;27;20380;-69
2021/06/19 12:01:00;;;;;;;6.47;4.00;;;;;;;;;;5126498;27;20857;-68
2021/06/19 12:03:27;;;;;;;8.27;5.18;;;;;;;;;;5109147;28;20120;-68
2021/06/19 12:05:53;;;;;;;7.18;4.57;;;;;;;;;;5108677;28;20095;-68
2021/06/19 12:10:25;;;;;;;10.85;5.43;;;;;;;;;;5133208;27;20107;-69
2021/06/19 12:12:55;;;;;;;8.45;5.50;;;;;;;;;;5130611;28;20027;-69
2021/06/19 12:16:08;;;;;;;8.35;5.10;;;;;;;;;;5126286;27;20369;-68
2021/06/19 12:18:34;;;;;;;9.10;4.60;;;;;;;;;;5109255;28;20027;-68
2021/06/19 12:21:00;;;;;;;8.75;5.00;;;;;;;;;;5108762;28;20035;-68
2021/06/19 12:23:34;;;;;;;6.53;4.05;;;;;;;;;;5110338;28;20422;-68
2021/06/19 12:26:26;;;;;;;6.40;4.40;;;;;;;;;;5109019;28;20024;-68
2021/06/19 12:28:53;;;;;;;6.05;4.00;;;;;;;;;;5109941;28;20036;-68
2021/06/19 12:31:24;;;;;;;6.63;3.67;;;;;;;;;;5110268;28;20043;-68
2021/06/19 12:33:58;;;;;;;6.20;3.60;;;;;;;;;;5109901;28;20464;-68
2021/06/19 12:36:24;;;;;;;5.53;3.42;;;;;;;;;;5110141;28;20382;-68
2021/06/19 12:38:51;;;;;;;6.43;3.88;;;;;;;;;;5110160;28;20024;-69
2021/06/19 12:41:17;;;;;;;7.30;4.18;;;;;;;;;;5109721;28;20031;-69
2021/06/19 12:43:49;;;;;;;6.30;4.22;;;;;;;;;;5110059;28;20020;-69
2021/06/19 12:46:16;;;;;;;5.95;3.45;;;;;;;;;;5110036;28;20015;-69
2021/06/19 12:48:43;;;;;;;7.13;3.40;;;;;;;;;;5108228;28;20027;-69
2021/06/19 12:51:20;;;;;;;6.18;4.03;;;;;;;;;;5109901;28;20024;-69
2021/06/19 12:53:46;;;;;;;5.35;3.10;;;;;;;;;;5108482;28;20535;-69
2021/06/19 12:56:13;;;;;;;5.65;3.20;;;;;;;;;;5109468;28;20061;-69
2021/06/19 12:58:40;;;;;;;5.43;3.03;;;;;;;;;;5108623;28;20028;-69
2021/06/19 13:01:17;;;;;;;4.72;3.08;;;;;;;;;;5108664;28;20429;-68
2021/06/19 13:03:53;;;;;;;7.00;3.35;;;;;;;;;;5109608;28;20020;-68
2021/06/19 13:06:43;;;;;;;6.72;3.28;;;;;;;;;;5109669;28;20023;-68
2021/06/19 13:09:13;;;;;;;4.90;2.50;;;;;;;;;;5109099;28;20024;-69
2021/06/19 13:11:41;;;;;;;4.50;2.63;;;;;;;;;;5109408;28;20352;-68
2021/06/19 13:14:08;;;;;;;5.80;2.90;;;;;;;;;;5109136;28;20047;-68
2021/06/19 13:16:35;;;;;;;6.38;3.40;;;;;;;;;;5108988;28;20023;-68
2021/06/19 13:19:02;;;;;;;3.83;2.72;;;;;;;;;;5109408;28;20020;-69
2021/06/19 13:21:29;;;;;;;2.70;2.10;;;;;;;;;;5109566;28;20124;-68
2021/06/19 13:23:55;;;;;;;4.60;2.30;;;;;;;;;;5107410;28;20099;-69
2021/06/19 13:26:22;;;;;;;3.78;2.42;;;;;;;;;;5101786;28;20066;-68
2021/06/19 13:28:51;;;;;;;3.50;2.22;;;;;;;;;;5095565;28;20020;-69
2021/06/19 13:31:20;;;;;;;5.53;2.35;;;;;;;;;;5095119;28;20043;-69
2021/06/19 13:33:47;;;;;;;3.65;2.67;;;;;;;;;;5095427;28;20430;-69
2021/06/19 13:36:29;;;;;;;4.53;2.60;;;;;;;;;;5094230;28;20056;-68
2021/06/19 13:38:58;;;;;;;4.60;2.60;;;;;;;;;;5095627;28;20031;-69
2021/06/19 13:41:25;;;;;;;3.88;2.38;;;;;;;;;;5095341;28;20361;-68
2021/06/19 13:43:52;;;;;;;4.13;2.10;;;;;;;;;;5093478;28;20031;-68
2021/06/19 13:46:18;;;;;;;4.18;2.60;;;;;;;;;;5095267;28;20024;-68
2021/06/19 13:48:44;;;;;;;3.80;2.40;;;;;;;;;;5095057;28;20027;-68
2021/06/19 13:51:11;;;;;;;3.03;2.17;;;;;;;;;;5094758;28;20024;-69
2021/06/19 13:53:47;;;;;;;3.50;2.22;;;;;;;;;;5095000;28;20035;-69
2021/06/19 13:56:14;;;;;;;4.20;2.17;;;;;;;;;;5095082;28;20521;-69
2021/06/19 13:58:41;;;;;;;6.15;2.13;;;;;;;;;;5094972;28;20028;-69
2021/06/19 14:01:09;;;;;;;5.63;2.47;;;;;;;;;;5094892;28;20540;-69
2021/06/19 14:03:35;;;;;;;5.07;2.20;;;;;;;;;;5094801;28;20016;-68
2021/06/19 14:06:03;;;;;;;5.05;2.00;;;;;;;;;;5094348;28;20039;-68
2021/06/19 14:08:30;;;;;;;4.95;2.30;;;;;;;;;;5094695;28;20077;-68
2021/06/19 14:10:56;;;;;;;4.28;2.45;;;;;;;;;;5093439;28;20476;-68
2021/06/19 14:13:22;;;;;;;3.70;2.10;;;;;;;;;;5094253;28;20056;-68
2021/06/19 14:15:48;;;;;;;6.07;2.60;;;;;;;;;;5094490;28;20052;-69
2021/06/19 14:18:15;;;;;;;4.20;2.40;;;;;;;;;;5094669;28;20016;-68
2021/06/19 14:20:41;;;;;;;2.67;1.83;;;;;;;;;;5093164;28;20035;-68
2021/06/19 14:23:07;;;;;;;4.00;2.08;;;;;;;;;;5094585;28;20141;-68
2021/06/19 14:25:33;;;;;;;7.47;2.42;;;;;;;;;;5094534;28;20047;-68
2021/06/19 14:28:02;;;;;;;3.40;2.53;;;;;;;;;;5093897;28;20101;-68
2021/06/19 14:30:29;;;;;;;5.00;3.00;;;;;;;;;;5094178;28;20024;-68
2021/06/19 14:32:55;;;;;;;4.75;2.85;;;;;;;;;;5093851;28;20020;-68
2021/06/19 14:35:22;;;;;;;6.03;3.22;;;;;;;;;;5094174;28;20480;-69
2021/06/19 14:37:49;;;;;;;6.53;3.25;;;;;;;;;;5093326;28;20389;-68
2021/06/19 14:40:16;;;;;;;7.00;3.80;;;;;;;;;;5094149;28;20044;-69
2021/06/19 14:42:42;;;;;;;8.20;3.45;;;;;;;;;;5092816;28;20514;-68
2021/06/19 14:45:09;;;;;;;6.70;3.63;;;;;;;;;;5093909;28;20051;-68
2021/06/19 14:47:36;;;;;;;6.65;3.40;;;;;;;;;;5093634;28;20056;-68
2021/06/19 14:50:03;;;;;;;6.57;4.05;;;;;;;;;;5094040;28;20020;-68
2021/06/19 14:52:29;;;;;;;5.63;2.90;;;;;;;;;;5092680;28;20483;-68
2021/06/19 14:54:55;;;;;;;4.63;3.13;;;;;;;;;;5093509;28;20040;-68
2021/06/19 14:57:21;;;;;;;5.60;3.30;;;;;;;;;;5094135;28;20019;-69
2021/06/19 14:59:47;;;;;;;4.55;2.90;;;;;;;;;;5092616;28;20540;-69
2021/06/19 15:02:13;;;;;;;5.00;2.83;;;;;;;;;;5093659;28;20391;-68
2021/06/19 15:04:40;;;;;;;4.60;2.80;;;;;;;;;;5092458;28;20028;-68
2021/06/19 15:07:06;;;;;;;8.38;2.97;;;;;;;;;;5093900;28;20032;-69
2021/06/19 15:09:32;;;;;;;6.70;3.15;;;;;;;;;;5093148;28;20058;-69
2021/06/19 15:11:58;;;;;;;6.78;3.17;;;;;;;;;;5093568;28;20499;-69
2021/06/19 15:14:24;;;;;;;8.70;3.40;;;;;;;;;;5093191;28;20052;-68
2021/06/19 15:16:50;;;;;;;4.85;3.53;;;;;;;;;;5091871;28;20024;-68
2021/06/19 15:19:17;;;;;;;4.85;2.50;;;;;;;;;;5093683;28;20095;-68
2021/06/19 15:21:43;;;;;;;4.63;3.13;;;;;;;;;;5093578;28;20024;-68
2021/06/19 15:24:09;;;;;;;4.03;2.60;;;;;;;;;;5093061;28;20478;-68
2021/06/19 15:26:35;;;;;;;4.90;2.80;;;;;;;;;;5092053;28;20020;-68
2021/06/19 15:29:04;;;;;;;3.92;2.20;;;;;;;;;;5091617;28;20028;-68
2021/06/19 15:31:31;;;;;;;3.58;2.50;;;;;;;;;;5093288;28;20077;-71
2021/06/19 15:33:57;;;;;;;4.07;2.35;;;;;;;;;;5093128;28;20020;-68
2021/06/19 15:36:23;;;;;;;3.75;2.13;;;;;;;;;;5092680;28;20050;-69
2021/06/19 15:38:50;;;;;;;4.35;2.30;;;;;;;;;;5093137;28;20026;-69
2021/06/19 15:41:16;;;;;;;5.53;2.72;;;;;;;;;;5092078;28;20438;-69
2021/06/19 15:43:42;;;;;;;3.80;2.42;;;;;;;;;;5092805;28;20020;-68
2021/06/19 15:46:09;;;;;;;3.97;2.47;;;;;;;;;;5093039;28;20376;-69
2021/06/19 15:48:35;;;;;;;3.90;2.33;;;;;;;;;;5092806;28;20038;-69
2021/06/19 15:51:01;;;;;;;2.47;1.80;;;;;;;;;;5092548;28;20029;-70
2021/06/19 15:53:27;;;;;;;4.30;2.45;;;;;;;;;;5092893;28;20031;-70
2021/06/19 15:55:53;;;;;;;4.38;2.80;;;;;;;;;;5091495;28;20028;-70
2021/06/19 15:58:20;;;;;;;6.55;3.25;;;;;;;;;;5092530;28;20020;-70